createdAt,value
2023-01-17T20:38:11.314Z,7.90
2023-01-17T20:40:41.446Z,7.78
2023-01-17T20:43:10.256Z,8.55
2023-01-17T20:45:37.189Z,8.65
2023-01-17T20:48:04.944Z,7.93
2023-01-17T20:50:32.324Z,7.22
2023-01-17T20:52:59.161Z,6.85
2023-01-17T20:55:26.059Z,7.13
2023-01-17T20:57:52.871Z,7.55
2023-01-17T21:00:20.055Z,6.72
2023-01-17T21:02:46.994Z,8.65
2023-01-17T21:05:14.568Z,8.07
2023-01-17T21:07:42.393Z,6.85
2023-01-17T21:10:09.795Z,7.30
2023-01-17T21:12:36.631Z,6.40
2023-01-17T21:15:03.730Z,8.20
2023-01-17T21:17:30.708Z,7.63
2023-01-17T21:19:57.949Z,7.93
2023-01-17T21:22:29.822Z,7.18
2023-01-17T21:24:58.055Z,8.18
2023-01-17T21:27:25.211Z,7.68
2023-01-17T21:29:53.641Z,7.95
2023-01-17T21:32:40.582Z,6.75
2023-01-17T21:35:07.902Z,7.65
2023-01-17T21:37:36.192Z,7.85
2023-01-17T21:40:05.199Z,7.60
2023-01-17T21:42:37.381Z,8.07
2023-01-17T21:45:04.639Z,8.10
2023-01-17T21:47:31.999Z,8.30
2023-01-17T21:49:58.959Z,8.40
2023-01-17T21:53:29.017Z,7.68
2023-01-17T21:56:20.158Z,6.80
2023-01-17T21:58:53.669Z,7.15
2023-01-17T22:02:24.127Z,6.60
2023-01-17T22:04:51.468Z,7.50
2023-01-17T22:07:18.539Z,6.85
2023-01-17T22:09:45.664Z,6.85
2023-01-17T22:12:12.718Z,7.18
2023-01-17T22:14:40.413Z,6.25
2023-01-17T22:17:07.725Z,9.77
2023-01-17T22:19:34.909Z,12.23
2023-01-17T22:22:02.742Z,7.25
2023-01-17T22:24:30.069Z,8.40
2023-01-17T22:26:58.592Z,8.10
2023-01-17T22:29:40.352Z,7.30
2023-01-17T22:32:08.245Z,6.82
2023-01-17T22:34:35.854Z,6.65
2023-01-17T22:37:05.706Z,6.53
2023-01-17T22:39:33.029Z,5.53
2023-01-17T22:42:01.857Z,6.15
2023-01-17T22:44:29.270Z,6.05
2023-01-17T22:47:01.958Z,6.60
2023-01-17T22:49:32.205Z,6.65
2023-01-17T22:52:58.148Z,7.00
2023-01-17T22:55:29.482Z,6.70
2023-01-17T22:58:24.811Z,5.78
2023-01-17T23:02:16.438Z,5.82
2023-01-17T23:04:57.792Z,5.18
2023-01-17T23:07:50.963Z,5.55
2023-01-17T23:10:43.268Z,5.70
2023-01-17T23:13:13.951Z,6.20
2023-01-17T23:16:08.717Z,5.85
2023-01-17T23:19:02.253Z,6.53
2023-01-17T23:22:13.397Z,6.15
2023-01-17T23:24:57.752Z,5.63
2023-01-17T23:27:56.478Z,5.65
2023-01-17T23:30:47.552Z,5.15
2023-01-17T23:33:17.131Z,5.22
2023-01-17T23:35:46.556Z,5.70
2023-01-17T23:38:28.761Z,5.75
2023-01-17T23:41:26.028Z,5.80
2023-01-17T23:43:57.674Z,5.93
2023-01-17T23:46:26.418Z,6.43
2023-01-17T23:48:55.011Z,5.22
2023-01-17T23:51:41.909Z,6.25
2023-01-17T23:54:09.448Z,6.38
2023-01-17T23:56:38.326Z,6.05
2023-01-17T23:59:08.245Z,6.55
